sensor_id;sensor_type;location;lat;lon;timestamp;P1;durP1;ratioP1;P2;durP2;ratioP2
55364;SDS011;41245;45.384;20.390;2023-12-20T00:01:37;82.38;;;40.25;;
55364;SDS011;41245;45.384;20.390;2023-12-20T00:04:03;86.05;;;39.17;;
55364;SDS011;41245;45.384;20.390;2023-12-20T00:06:29;75.75;;;41.13;;
55364;SDS011;41245;45.384;20.390;2023-12-20T00:08:55;83.13;;;38.35;;
55364;SDS011;41245;45.384;20.390;2023-12-20T00:11:23;86.07;;;41.40;;
55364;SDS011;41245;45.384;20.390;2023-12-20T00:13:49;93.43;;;40.50;;
55364;SDS011;41245;45.384;20.390;2023-12-20T00:16:15;90.97;;;39.92;;
55364;SDS011;41245;45.384;20.390;2023-12-20T00:18:41;88.10;;;42.83;;
55364;SDS011;41245;45.384;20.390;2023-12-20T00:21:07;84.63;;;42.70;;
55364;SDS011;41245;45.384;20.390;2023-12-20T00:23:33;83.10;;;42.88;;
55364;SDS011;41245;45.384;20.390;2023-12-20T00:25:59;95.53;;;41.92;;
55364;SDS011;41245;45.384;20.390;2023-12-20T00:28:25;97.90;;;43.67;;
55364;SDS011;41245;45.384;20.390;2023-12-20T00:30:51;87.07;;;43.85;;
55364;SDS011;41245;45.384;20.390;2023-12-20T00:33:17;85.90;;;42.15;;
55364;SDS011;41245;45.384;20.390;2023-12-20T00:35:44;82.25;;;40.53;;
55364;SDS011;41245;45.384;20.390;2023-12-20T00:38:10;96.10;;;45.38;;
55364;SDS011;41245;45.384;20.390;2023-12-20T00:40:36;94.45;;;42.85;;
55364;SDS011;41245;45.384;20.390;2023-12-20T00:43:02;91.10;;;42.13;;
55364;SDS011;41245;45.384;20.390;2023-12-20T00:45:28;89.38;;;43.42;;
55364;SDS011;41245;45.384;20.390;2023-12-20T00:47:55;89.95;;;41.55;;
55364;SDS011;41245;45.384;20.390;2023-12-20T00:50:21;84.20;;;41.10;;
55364;SDS011;41245;45.384;20.390;2023-12-20T00:52:47;88.68;;;43.65;;
55364;SDS011;41245;45.384;20.390;2023-12-20T00:55:13;79.13;;;38.63;;
55364;SDS011;41245;45.384;20.390;2023-12-20T00:57:39;84.28;;;40.55;;
55364;SDS011;41245;45.384;20.390;2023-12-20T01:00:06;85.25;;;40.55;;
55364;SDS011;41245;45.384;20.390;2023-12-20T01:02:34;79.63;;;39.22;;
55364;SDS011;41245;45.384;20.390;2023-12-20T01:05:00;79.43;;;39.10;;
55364;SDS011;41245;45.384;20.390;2023-12-20T01:07:27;77.22;;;39.92;;
55364;SDS011;41245;45.384;20.390;2023-12-20T01:09:53;73.88;;;36.47;;
55364;SDS011;41245;45.384;20.390;2023-12-20T01:12:19;73.32;;;37.08;;
55364;SDS011;41245;45.384;20.390;2023-12-20T01:14:46;82.30;;;37.83;;
55364;SDS011;41245;45.384;20.390;2023-12-20T01:17:12;80.03;;;38.10;;
55364;SDS011;41245;45.384;20.390;2023-12-20T01:19:38;70.63;;;36.75;;
55364;SDS011;41245;45.384;20.390;2023-12-20T01:22:04;70.32;;;37.50;;
55364;SDS011;41245;45.384;20.390;2023-12-20T01:24:30;79.45;;;37.15;;
55364;SDS011;41245;45.384;20.390;2023-12-20T01:26:56;75.30;;;35.40;;
55364;SDS011;41245;45.384;20.390;2023-12-20T01:29:22;72.72;;;36.22;;
55364;SDS011;41245;45.384;20.390;2023-12-20T01:31:48;74.40;;;36.30;;
55364;SDS011;41245;45.384;20.390;2023-12-20T01:34:15;80.43;;;35.13;;
55364;SDS011;41245;45.384;20.390;2023-12-20T01:36:41;77.80;;;34.65;;
55364;SDS011;41245;45.384;20.390;2023-12-20T01:39:07;72.80;;;35.17;;
55364;SDS011;41245;45.384;20.390;2023-12-20T01:41:33;75.25;;;33.38;;
55364;SDS011;41245;45.384;20.390;2023-12-20T01:43:59;58.53;;;29.35;;
55364;SDS011;41245;45.384;20.390;2023-12-20T01:46:25;60.92;;;29.80;;
55364;SDS011;41245;45.384;20.390;2023-12-20T01:48:51;58.72;;;32.30;;
55364;SDS011;41245;45.384;20.390;2023-12-20T01:51:18;57.00;;;29.10;;
55364;SDS011;41245;45.384;20.390;2023-12-20T01:53:44;59.05;;;29.70;;
55364;SDS011;41245;45.384;20.390;2023-12-20T01:56:10;58.38;;;27.83;;
55364;SDS011;41245;45.384;20.390;2023-12-20T01:58:38;55.10;;;28.17;;
55364;SDS011;41245;45.384;20.390;2023-12-20T02:01:05;57.80;;;26.55;;
55364;SDS011;41245;45.384;20.390;2023-12-20T02:03:31;54.25;;;28.10;;
55364;SDS011;41245;45.384;20.390;2023-12-20T02:05:57;57.15;;;26.73;;
55364;SDS011;41245;45.384;20.390;2023-12-20T02:08:23;53.60;;;25.67;;
55364;SDS011;41245;45.384;20.390;2023-12-20T02:10:49;51.03;;;24.92;;
55364;SDS011;41245;45.384;20.390;2023-12-20T02:13:16;49.00;;;24.92;;
55364;SDS011;41245;45.384;20.390;2023-12-20T02:15:42;42.50;;;23.45;;
55364;SDS011;41245;45.384;20.390;2023-12-20T02:18:08;49.30;;;23.70;;
55364;SDS011;41245;45.384;20.390;2023-12-20T02:20:35;50.50;;;25.35;;
55364;SDS011;41245;45.384;20.390;2023-12-20T02:23:01;49.25;;;23.85;;
55364;SDS011;41245;45.384;20.390;2023-12-20T02:25:27;44.47;;;23.58;;
55364;SDS011;41245;45.384;20.390;2023-12-20T02:27:53;50.95;;;23.58;;
55364;SDS011;41245;45.384;20.390;2023-12-20T02:30:19;42.80;;;23.45;;
55364;SDS011;41245;45.384;20.390;2023-12-20T02:32:45;51.15;;;24.95;;
55364;SDS011;41245;45.384;20.390;2023-12-20T02:35:11;42.88;;;22.80;;
55364;SDS011;41245;45.384;20.390;2023-12-20T02:37:37;55.90;;;24.80;;
55364;SDS011;41245;45.384;20.390;2023-12-20T02:40:03;49.17;;;24.13;;
55364;SDS011;41245;45.384;20.390;2023-12-20T02:42:29;50.47;;;25.92;;
55364;SDS011;41245;45.384;20.390;2023-12-20T02:44:55;46.33;;;24.10;;
55364;SDS011;41245;45.384;20.390;2023-12-20T02:47:21;51.53;;;24.35;;
55364;SDS011;41245;45.384;20.390;2023-12-20T02:49:47;47.53;;;23.77;;
55364;SDS011;41245;45.384;20.390;2023-12-20T02:52:14;41.47;;;22.95;;
55364;SDS011;41245;45.384;20.390;2023-12-20T02:54:40;49.85;;;24.90;;
55364;SDS011;41245;45.384;20.390;2023-12-20T02:57:06;49.65;;;25.05;;
55364;SDS011;41245;45.384;20.390;2023-12-20T02:59:32;42.53;;;24.05;;
55364;SDS011;41245;45.384;20.390;2023-12-20T03:01:58;48.20;;;23.98;;
55364;SDS011;41245;45.384;20.390;2023-12-20T03:04:24;43.85;;;23.33;;
55364;SDS011;41245;45.384;20.390;2023-12-20T03:06:50;43.15;;;23.30;;
55364;SDS011;41245;45.384;20.390;2023-12-20T03:09:16;48.55;;;22.00;;
55364;SDS011;41245;45.384;20.390;2023-12-20T03:11:42;46.08;;;23.10;;
55364;SDS011;41245;45.384;20.390;2023-12-20T03:14:08;48.03;;;23.48;;
55364;SDS011;41245;45.384;20.390;2023-12-20T03:16:34;43.42;;;21.90;;
55364;SDS011;41245;45.384;20.390;2023-12-20T03:19:00;45.35;;;22.80;;
55364;SDS011;41245;45.384;20.390;2023-12-20T03:21:26;41.60;;;21.10;;
55364;SDS011;41245;45.384;20.390;2023-12-20T03:23:53;45.90;;;21.67;;
55364;SDS011;41245;45.384;20.390;2023-12-20T03:26:19;37.58;;;20.70;;
55364;SDS011;41245;45.384;20.390;2023-12-20T03:28:45;38.10;;;19.92;;
55364;SDS011;41245;45.384;20.390;2023-12-20T03:31:11;38.17;;;21.52;;
55364;SDS011;41245;45.384;20.390;2023-12-20T03:33:37;38.17;;;19.50;;
55364;SDS011;41245;45.384;20.390;2023-12-20T03:36:03;36.30;;;19.27;;
55364;SDS011;41245;45.384;20.390;2023-12-20T03:38:29;38.35;;;20.75;;
55364;SDS011;41245;45.384;20.390;2023-12-20T03:40:55;42.30;;;20.15;;
55364;SDS011;41245;45.384;20.390;2023-12-20T03:43:21;35.20;;;19.88;;
55364;SDS011;41245;45.384;20.390;2023-12-20T03:45:47;39.42;;;20.67;;
55364;SDS011;41245;45.384;20.390;2023-12-20T03:48:13;49.95;;;23.08;;
55364;SDS011;41245;45.384;20.390;2023-12-20T03:50:39;40.80;;;19.73;;
55364;SDS011;41245;45.384;20.390;2023-12-20T03:53:05;41.58;;;20.63;;
55364;SDS011;41245;45.384;20.390;2023-12-20T03:55:31;46.47;;;22.17;;
55364;SDS011;41245;45.384;20.390;2023-12-20T03:57:57;42.85;;;19.90;;
55364;SDS011;41245;45.384;20.390;2023-12-20T04:00:23;41.05;;;21.35;;
55364;SDS011;41245;45.384;20.390;2023-12-20T04:02:49;45.08;;;21.42;;
55364;SDS011;41245;45.384;20.390;2023-12-20T04:05:15;50.63;;;23.20;;
55364;SDS011;41245;45.384;20.390;2023-12-20T04:07:41;48.22;;;21.33;;
55364;SDS011;41245;45.384;20.390;2023-12-20T04:10:08;39.83;;;19.60;;
55364;SDS011;41245;45.384;20.390;2023-12-20T04:12:34;37.40;;;19.02;;
55364;SDS011;41245;45.384;20.390;2023-12-20T04:15:01;39.45;;;20.08;;
55364;SDS011;41245;45.384;20.390;2023-12-20T04:17:33;45.45;;;22.50;;
55364;SDS011;41245;45.384;20.390;2023-12-20T04:19:59;65.53;;;30.27;;
55364;SDS011;41245;45.384;20.390;2023-12-20T04:22:25;45.03;;;21.35;;
55364;SDS011;41245;45.384;20.390;2023-12-20T04:24:52;38.58;;;20.52;;
55364;SDS011;41245;45.384;20.390;2023-12-20T04:27:18;41.10;;;20.77;;
55364;SDS011;41245;45.384;20.390;2023-12-20T04:29:44;42.45;;;21.80;;
55364;SDS011;41245;45.384;20.390;2023-12-20T04:32:10;35.15;;;19.60;;
55364;SDS011;41245;45.384;20.390;2023-12-20T04:34:36;46.25;;;21.85;;
55364;SDS011;41245;45.384;20.390;2023-12-20T04:37:02;39.03;;;20.33;;
55364;SDS011;41245;45.384;20.390;2023-12-20T04:39:28;37.05;;;18.95;;
55364;SDS011;41245;45.384;20.390;2023-12-20T04:41:54;32.42;;;18.23;;
55364;SDS011;41245;45.384;20.390;2023-12-20T04:44:20;36.80;;;18.60;;
55364;SDS011;41245;45.384;20.390;2023-12-20T04:46:46;38.58;;;20.52;;
55364;SDS011;41245;45.384;20.390;2023-12-20T04:49:13;41.35;;;21.42;;
55364;SDS011;41245;45.384;20.390;2023-12-20T04:51:39;39.10;;;19.83;;
55364;SDS011;41245;45.384;20.390;2023-12-20T04:54:05;40.92;;;20.08;;
55364;SDS011;41245;45.384;20.390;2023-12-20T04:56:31;37.45;;;19.90;;
55364;SDS011;41245;45.384;20.390;2023-12-20T04:58:57;40.08;;;19.52;;
55364;SDS011;41245;45.384;20.390;2023-12-20T05:01:23;39.88;;;18.58;;
55364;SDS011;41245;45.384;20.390;2023-12-20T05:03:49;39.20;;;19.67;;
55364;SDS011;41245;45.384;20.390;2023-12-20T05:06:15;40.05;;;20.52;;
55364;SDS011;41245;45.384;20.390;2023-12-20T05:08:41;35.88;;;20.05;;
55364;SDS011;41245;45.384;20.390;2023-12-20T05:11:07;42.58;;;20.85;;
55364;SDS011;41245;45.384;20.390;2023-12-20T05:13:33;39.95;;;18.90;;
55364;SDS011;41245;45.384;20.390;2023-12-20T05:15:59;35.47;;;19.83;;
55364;SDS011;41245;45.384;20.390;2023-12-20T05:18:25;36.55;;;20.85;;
55364;SDS011;41245;45.384;20.390;2023-12-20T05:20:51;48.97;;;22.02;;
55364;SDS011;41245;45.384;20.390;2023-12-20T05:23:17;34.20;;;19.05;;
55364;SDS011;41245;45.384;20.390;2023-12-20T05:25:43;39.78;;;21.27;;
55364;SDS011;41245;45.384;20.390;2023-12-20T05:28:09;40.83;;;21.80;;
55364;SDS011;41245;45.384;20.390;2023-12-20T05:30:35;39.92;;;21.25;;
55364;SDS011;41245;45.384;20.390;2023-12-20T05:33:01;42.72;;;20.73;;
55364;SDS011;41245;45.384;20.390;2023-12-20T05:35:27;41.97;;;21.85;;
55364;SDS011;41245;45.384;20.390;2023-12-20T05:37:53;44.55;;;21.70;;
55364;SDS011;41245;45.384;20.390;2023-12-20T05:40:19;44.42;;;22.55;;
55364;SDS011;41245;45.384;20.390;2023-12-20T05:42:46;47.03;;;23.13;;
55364;SDS011;41245;45.384;20.390;2023-12-20T05:45:14;44.28;;;22.52;;
55364;SDS011;41245;45.384;20.390;2023-12-20T05:47:40;46.15;;;22.80;;
55364;SDS011;41245;45.384;20.390;2023-12-20T05:50:06;43.70;;;21.35;;
55364;SDS011;41245;45.384;20.390;2023-12-20T05:52:33;41.50;;;22.13;;
55364;SDS011;41245;45.384;20.390;2023-12-20T05:54:59;47.25;;;22.33;;
55364;SDS011;41245;45.384;20.390;2023-12-20T05:57:28;41.75;;;23.58;;
55364;SDS011;41245;45.384;20.390;2023-12-20T05:59:54;43.72;;;22.77;;
55364;SDS011;41245;45.384;20.390;2023-12-20T06:02:20;40.90;;;21.25;;
55364;SDS011;41245;45.384;20.390;2023-12-20T06:04:46;47.83;;;23.00;;
55364;SDS011;41245;45.384;20.390;2023-12-20T06:07:12;55.53;;;28.88;;
55364;SDS011;41245;45.384;20.390;2023-12-20T06:09:38;47.35;;;24.13;;
55364;SDS011;41245;45.384;20.390;2023-12-20T06:12:04;39.40;;;22.60;;
55364;SDS011;41245;45.384;20.390;2023-12-20T06:14:30;46.88;;;25.00;;
55364;SDS011;41245;45.384;20.390;2023-12-20T06:16:57;58.15;;;26.95;;
55364;SDS011;41245;45.384;20.390;2023-12-20T06:19:23;53.08;;;26.42;;
55364;SDS011;41245;45.384;20.390;2023-12-20T06:21:49;49.28;;;24.45;;
55364;SDS011;41245;45.384;20.390;2023-12-20T06:24:15;57.25;;;25.77;;
55364;SDS011;41245;45.384;20.390;2023-12-20T06:26:41;50.58;;;26.90;;
55364;SDS011;41245;45.384;20.390;2023-12-20T06:29:07;52.45;;;24.77;;
55364;SDS011;41245;45.384;20.390;2023-12-20T06:31:33;53.35;;;25.40;;
55364;SDS011;41245;45.384;20.390;2023-12-20T06:34:00;54.10;;;25.25;;
55364;SDS011;41245;45.384;20.390;2023-12-20T06:36:26;54.45;;;27.95;;
55364;SDS011;41245;45.384;20.390;2023-12-20T06:38:52;62.67;;;31.00;;
55364;SDS011;41245;45.384;20.390;2023-12-20T06:41:18;67.65;;;32.80;;
55364;SDS011;41245;45.384;20.390;2023-12-20T06:43:45;76.82;;;36.58;;
55364;SDS011;41245;45.384;20.390;2023-12-20T06:46:12;74.95;;;35.78;;
55364;SDS011;41245;45.384;20.390;2023-12-20T06:48:38;81.60;;;37.17;;
55364;SDS011;41245;45.384;20.390;2023-12-20T06:51:05;70.10;;;33.78;;
55364;SDS011;41245;45.384;20.390;2023-12-20T06:53:31;62.13;;;30.50;;
55364;SDS011;41245;45.384;20.390;2023-12-20T06:55:57;54.90;;;28.60;;
55364;SDS011;41245;45.384;20.390;2023-12-20T06:58:23;61.38;;;27.88;;
55364;SDS011;41245;45.384;20.390;2023-12-20T07:00:50;53.83;;;28.15;;
55364;SDS011;41245;45.384;20.390;2023-12-20T07:03:19;51.35;;;24.92;;
55364;SDS011;41245;45.384;20.390;2023-12-20T07:05:45;50.05;;;26.15;;
55364;SDS011;41245;45.384;20.390;2023-12-20T07:08:11;47.45;;;26.65;;
55364;SDS011;41245;45.384;20.390;2023-12-20T07:10:39;54.78;;;25.85;;
55364;SDS011;41245;45.384;20.390;2023-12-20T07:13:05;52.88;;;26.48;;
55364;SDS011;41245;45.384;20.390;2023-12-20T07:15:31;55.30;;;25.40;;
55364;SDS011;41245;45.384;20.390;2023-12-20T07:17:57;62.85;;;28.10;;
55364;SDS011;41245;45.384;20.390;2023-12-20T07:20:25;64.45;;;29.35;;
55364;SDS011;41245;45.384;20.390;2023-12-20T07:22:51;63.17;;;29.83;;
55364;SDS011;41245;45.384;20.390;2023-12-20T07:25:17;59.67;;;28.70;;
55364;SDS011;41245;45.384;20.390;2023-12-20T07:27:45;61.45;;;29.02;;
55364;SDS011;41245;45.384;20.390;2023-12-20T07:30:11;59.50;;;28.50;;
55364;SDS011;41245;45.384;20.390;2023-12-20T07:32:37;58.88;;;28.80;;
55364;SDS011;41245;45.384;20.390;2023-12-20T07:35:03;62.33;;;28.80;;
55364;SDS011;41245;45.384;20.390;2023-12-20T07:37:30;67.75;;;29.67;;
55364;SDS011;41245;45.384;20.390;2023-12-20T07:39:56;55.88;;;28.58;;
55364;SDS011;41245;45.384;20.390;2023-12-20T07:42:22;58.72;;;29.42;;
55364;SDS011;41245;45.384;20.390;2023-12-20T07:44:48;59.25;;;28.70;;
55364;SDS011;41245;45.384;20.390;2023-12-20T07:47:14;69.75;;;32.83;;
55364;SDS011;41245;45.384;20.390;2023-12-20T07:49:44;66.13;;;33.85;;
55364;SDS011;41245;45.384;20.390;2023-12-20T07:52:10;64.57;;;33.63;;
55364;SDS011;41245;45.384;20.390;2023-12-20T07:54:36;67.07;;;32.65;;
55364;SDS011;41245;45.384;20.390;2023-12-20T07:57:02;65.28;;;30.48;;
55364;SDS011;41245;45.384;20.390;2023-12-20T07:59:28;57.90;;;28.25;;
55364;SDS011;41245;45.384;20.390;2023-12-20T08:01:54;60.58;;;30.00;;
55364;SDS011;41245;45.384;20.390;2023-12-20T08:04:20;62.38;;;29.27;;
55364;SDS011;41245;45.384;20.390;2023-12-20T08:06:47;62.22;;;30.55;;
55364;SDS011;41245;45.384;20.390;2023-12-20T08:09:13;58.25;;;28.75;;
55364;SDS011;41245;45.384;20.390;2023-12-20T08:11:39;60.38;;;30.83;;
55364;SDS011;41245;45.384;20.390;2023-12-20T08:14:05;64.63;;;30.52;;
55364;SDS011;41245;45.384;20.390;2023-12-20T08:16:31;59.75;;;30.98;;
55364;SDS011;41245;45.384;20.390;2023-12-20T08:18:57;69.40;;;31.05;;
55364;SDS011;41245;45.384;20.390;2023-12-20T08:21:23;69.38;;;31.38;;
55364;SDS011;41245;45.384;20.390;2023-12-20T08:23:49;74.93;;;35.05;;
55364;SDS011;41245;45.384;20.390;2023-12-20T08:26:18;83.05;;;40.13;;
55364;SDS011;41245;45.384;20.390;2023-12-20T08:28:45;84.53;;;40.78;;
55364;SDS011;41245;45.384;20.390;2023-12-20T08:31:14;77.13;;;38.70;;
55364;SDS011;41245;45.384;20.390;2023-12-20T08:33:41;88.68;;;39.85;;
55364;SDS011;41245;45.384;20.390;2023-12-20T08:36:07;76.78;;;39.55;;
55364;SDS011;41245;45.384;20.390;2023-12-20T08:38:33;75.15;;;37.40;;
55364;SDS011;41245;45.384;20.390;2023-12-20T08:40:59;80.93;;;38.97;;
55364;SDS011;41245;45.384;20.390;2023-12-20T08:43:26;81.70;;;40.08;;
55364;SDS011;41245;45.384;20.390;2023-12-20T08:45:52;82.78;;;40.80;;
55364;SDS011;41245;45.384;20.390;2023-12-20T08:48:18;86.60;;;42.53;;
55364;SDS011;41245;45.384;20.390;2023-12-20T08:50:44;99.47;;;45.63;;
55364;SDS011;41245;45.384;20.390;2023-12-20T08:53:12;125.72;;;52.67;;
55364;SDS011;41245;45.384;20.390;2023-12-20T08:55:38;95.22;;;47.50;;
55364;SDS011;41245;45.384;20.390;2023-12-20T08:58:04;98.57;;;46.80;;
55364;SDS011;41245;45.384;20.390;2023-12-20T09:00:32;89.97;;;43.22;;
55364;SDS011;41245;45.384;20.390;2023-12-20T09:02:58;88.90;;;43.35;;
55364;SDS011;41245;45.384;20.390;2023-12-20T09:05:24;75.20;;;37.95;;
55364;SDS011;41245;45.384;20.390;2023-12-20T09:07:50;85.85;;;39.75;;
55364;SDS011;41245;45.384;20.390;2023-12-20T09:10:16;92.85;;;42.15;;
55364;SDS011;41245;45.384;20.390;2023-12-20T09:12:47;80.65;;;37.03;;
55364;SDS011;41245;45.384;20.390;2023-12-20T09:15:13;66.05;;;34.50;;
55364;SDS011;41245;45.384;20.390;2023-12-20T09:17:40;70.97;;;34.53;;
55364;SDS011;41245;45.384;20.390;2023-12-20T09:20:06;85.10;;;41.42;;
55364;SDS011;41245;45.384;20.390;2023-12-20T09:22:33;85.53;;;37.65;;
55364;SDS011;41245;45.384;20.390;2023-12-20T09:25:00;82.50;;;41.38;;
55364;SDS011;41245;45.384;20.390;2023-12-20T09:27:27;87.75;;;41.63;;
55364;SDS011;41245;45.384;20.390;2023-12-20T09:29:53;88.63;;;43.22;;
55364;SDS011;41245;45.384;20.390;2023-12-20T09:32:19;79.60;;;42.75;;
55364;SDS011;41245;45.384;20.390;2023-12-20T09:34:48;85.78;;;44.00;;
55364;SDS011;41245;45.384;20.390;2023-12-20T09:37:14;78.00;;;39.58;;
55364;SDS011;41245;45.384;20.390;2023-12-20T09:39:40;91.22;;;42.20;;
55364;SDS011;41245;45.384;20.390;2023-12-20T09:42:06;83.95;;;44.22;;
55364;SDS011;41245;45.384;20.390;2023-12-20T09:44:33;92.50;;;43.70;;
55364;SDS011;41245;45.384;20.390;2023-12-20T09:47:02;77.05;;;41.53;;
55364;SDS011;41245;45.384;20.390;2023-12-20T09:49:28;74.85;;;39.95;;
55364;SDS011;41245;45.384;20.390;2023-12-20T09:51:56;71.30;;;39.22;;
55364;SDS011;41245;45.384;20.390;2023-12-20T09:54:23;69.72;;;38.58;;
55364;SDS011;41245;45.384;20.390;2023-12-20T09:56:49;76.53;;;40.60;;
55364;SDS011;41245;45.384;20.390;2023-12-20T09:59:15;86.63;;;42.75;;
55364;SDS011;41245;45.384;20.390;2023-12-20T10:01:42;84.30;;;43.55;;
55364;SDS011;41245;45.384;20.390;2023-12-20T10:04:09;94.68;;;44.22;;
55364;SDS011;41245;45.384;20.390;2023-12-20T10:06:37;90.77;;;47.23;;
55364;SDS011;41245;45.384;20.390;2023-12-20T10:09:03;91.97;;;48.05;;
55364;SDS011;41245;45.384;20.390;2023-12-20T10:11:30;87.68;;;45.03;;
55364;SDS011;41245;45.384;20.390;2023-12-20T10:13:59;81.72;;;43.78;;
55364;SDS011;41245;45.384;20.390;2023-12-20T10:16:29;85.57;;;40.75;;
55364;SDS011;41245;45.384;20.390;2023-12-20T10:18:55;77.13;;;40.13;;
55364;SDS011;41245;45.384;20.390;2023-12-20T10:21:24;76.07;;;41.40;;
55364;SDS011;41245;45.384;20.390;2023-12-20T10:23:56;77.10;;;40.17;;
55364;SDS011;41245;45.384;20.390;2023-12-20T10:26:23;94.60;;;49.20;;
55364;SDS011;41245;45.384;20.390;2023-12-20T10:29:01;89.78;;;44.78;;
55364;SDS011;41245;45.384;20.390;2023-12-20T10:31:30;70.97;;;37.20;;
55364;SDS011;41245;45.384;20.390;2023-12-20T10:33:57;64.93;;;35.00;;
55364;SDS011;41245;45.384;20.390;2023-12-20T10:36:24;67.63;;;34.60;;
55364;SDS011;41245;45.384;20.390;2023-12-20T10:38:51;60.38;;;33.17;;
55364;SDS011;41245;45.384;20.390;2023-12-20T10:41:18;63.13;;;33.15;;
55364;SDS011;41245;45.384;20.390;2023-12-20T10:43:47;57.30;;;30.92;;
55364;SDS011;41245;45.384;20.390;2023-12-20T10:46:13;57.53;;;32.75;;
55364;SDS011;41245;45.384;20.390;2023-12-20T10:48:39;68.10;;;36.35;;
55364;SDS011;41245;45.384;20.390;2023-12-20T10:51:06;61.17;;;35.45;;
55364;SDS011;41245;45.384;20.390;2023-12-20T10:53:32;66.35;;;34.03;;
55364;SDS011;41245;45.384;20.390;2023-12-20T10:56:00;68.93;;;34.83;;
55364;SDS011;41245;45.384;20.390;2023-12-20T10:58:26;76.45;;;36.15;;
55364;SDS011;41245;45.384;20.390;2023-12-20T11:00:54;84.32;;;42.42;;
55364;SDS011;41245;45.384;20.390;2023-12-20T11:10:49;89.93;;;46.63;;
55364;SDS011;41245;45.384;20.390;2023-12-20T11:13:22;92.55;;;43.08;;
55364;SDS011;41245;45.384;20.390;2023-12-20T11:15:49;87.35;;;40.00;;
55364;SDS011;41245;45.384;20.390;2023-12-20T11:18:15;77.03;;;37.40;;
55364;SDS011;41245;45.384;20.390;2023-12-20T11:20:42;66.95;;;35.03;;
55364;SDS011;41245;45.384;20.390;2023-12-20T11:23:08;67.10;;;36.33;;
55364;SDS011;41245;45.384;20.390;2023-12-20T11:25:56;85.82;;;40.80;;
55364;SDS011;41245;45.384;20.390;2023-12-20T11:28:23;84.80;;;44.83;;
55364;SDS011;41245;45.384;20.390;2023-12-20T11:30:50;76.50;;;40.55;;
55364;SDS011;41245;45.384;20.390;2023-12-20T11:33:17;69.03;;;34.97;;
55364;SDS011;41245;45.384;20.390;2023-12-20T11:35:46;71.55;;;37.80;;
55364;SDS011;41245;45.384;20.390;2023-12-20T11:38:13;58.00;;;31.40;;
55364;SDS011;41245;45.384;20.390;2023-12-20T11:40:41;62.50;;;31.63;;
55364;SDS011;41245;45.384;20.390;2023-12-20T11:43:07;60.45;;;33.22;;
55364;SDS011;41245;45.384;20.390;2023-12-20T11:45:33;65.30;;;32.95;;
55364;SDS011;41245;45.384;20.390;2023-12-20T11:48:00;60.92;;;31.88;;
55364;SDS011;41245;45.384;20.390;2023-12-20T11:50:27;59.72;;;31.17;;
55364;SDS011;41245;45.384;20.390;2023-12-20T11:52:54;55.33;;;29.38;;
55364;SDS011;41245;45.384;20.390;2023-12-20T11:55:21;49.00;;;27.77;;
55364;SDS011;41245;45.384;20.390;2023-12-20T11:57:47;54.05;;;27.13;;
55364;SDS011;41245;45.384;20.390;2023-12-20T12:00:13;50.78;;;26.75;;
55364;SDS011;41245;45.384;20.390;2023-12-20T12:02:40;49.17;;;27.65;;
55364;SDS011;41245;45.384;20.390;2023-12-20T12:05:06;50.00;;;27.45;;
55364;SDS011;41245;45.384;20.390;2023-12-20T12:07:33;50.72;;;26.83;;
55364;SDS011;41245;45.384;20.390;2023-12-20T12:09:59;50.38;;;26.77;;
55364;SDS011;41245;45.384;20.390;2023-12-20T12:12:25;53.28;;;26.80;;
55364;SDS011;41245;45.384;20.390;2023-12-20T12:14:52;53.25;;;25.35;;
55364;SDS011;41245;45.384;20.390;2023-12-20T12:17:19;47.13;;;26.10;;
55364;SDS011;41245;45.384;20.390;2023-12-20T12:19:45;48.42;;;25.00;;
55364;SDS011;41245;45.384;20.390;2023-12-20T12:22:12;51.25;;;25.02;;
55364;SDS011;41245;45.384;20.390;2023-12-20T12:24:42;57.22;;;27.17;;
55364;SDS011;41245;45.384;20.390;2023-12-20T12:29:35;55.35;;;25.40;;
55364;SDS011;41245;45.384;20.390;2023-12-20T12:32:04;49.47;;;27.08;;
55364;SDS011;41245;45.384;20.390;2023-12-20T12:34:31;48.50;;;26.02;;
55364;SDS011;41245;45.384;20.390;2023-12-20T12:36:59;53.22;;;25.98;;
55364;SDS011;41245;45.384;20.390;2023-12-20T12:39:25;45.53;;;24.27;;
55364;SDS011;41245;45.384;20.390;2023-12-20T12:41:51;50.67;;;27.63;;
55364;SDS011;41245;45.384;20.390;2023-12-20T12:44:17;45.38;;;24.40;;
55364;SDS011;41245;45.384;20.390;2023-12-20T12:46:44;40.63;;;21.17;;
55364;SDS011;41245;45.384;20.390;2023-12-20T12:49:10;52.50;;;24.52;;
55364;SDS011;41245;45.384;20.390;2023-12-20T12:51:36;41.35;;;23.67;;
55364;SDS011;41245;45.384;20.390;2023-12-20T12:54:02;40.50;;;20.08;;
55364;SDS011;41245;45.384;20.390;2023-12-20T12:56:29;62.10;;;29.17;;
55364;SDS011;41245;45.384;20.390;2023-12-20T12:58:55;67.35;;;34.40;;
55364;SDS011;41245;45.384;20.390;2023-12-20T13:01:21;65.55;;;35.33;;
55364;SDS011;41245;45.384;20.390;2023-12-20T13:03:47;74.53;;;36.20;;
55364;SDS011;41245;45.384;20.390;2023-12-20T13:06:13;68.05;;;34.30;;
55364;SDS011;41245;45.384;20.390;2023-12-20T13:08:39;65.18;;;34.13;;
55364;SDS011;41245;45.384;20.390;2023-12-20T13:11:06;70.57;;;34.67;;
55364;SDS011;41245;45.384;20.390;2023-12-20T13:13:32;66.97;;;36.65;;
55364;SDS011;41245;45.384;20.390;2023-12-20T13:15:59;78.90;;;37.92;;
55364;SDS011;41245;45.384;20.390;2023-12-20T13:18:26;76.38;;;35.60;;
55364;SDS011;41245;45.384;20.390;2023-12-20T13:20:52;75.00;;;37.45;;
55364;SDS011;41245;45.384;20.390;2023-12-20T13:23:18;74.68;;;36.53;;
55364;SDS011;41245;45.384;20.390;2023-12-20T13:25:44;70.82;;;35.95;;
55364;SDS011;41245;45.384;20.390;2023-12-20T13:28:13;69.25;;;35.35;;
55364;SDS011;41245;45.384;20.390;2023-12-20T13:30:39;67.25;;;32.83;;
55364;SDS011;41245;45.384;20.390;2023-12-20T13:33:05;72.43;;;33.83;;
55364;SDS011;41245;45.384;20.390;2023-12-20T13:35:32;67.68;;;32.03;;
55364;SDS011;41245;45.384;20.390;2023-12-20T13:37:58;64.50;;;32.70;;
55364;SDS011;41245;45.384;20.390;2023-12-20T13:40:24;65.60;;;33.08;;
55364;SDS011;41245;45.384;20.390;2023-12-20T13:42:50;68.53;;;34.25;;
55364;SDS011;41245;45.384;20.390;2023-12-20T13:45:16;63.25;;;30.23;;
55364;SDS011;41245;45.384;20.390;2023-12-20T13:47:43;59.50;;;29.55;;
55364;SDS011;41245;45.384;20.390;2023-12-20T13:50:09;60.08;;;29.58;;
55364;SDS011;41245;45.384;20.390;2023-12-20T13:52:35;57.25;;;31.08;;
55364;SDS011;41245;45.384;20.390;2023-12-20T13:55:01;74.38;;;33.03;;
55364;SDS011;41245;45.384;20.390;2023-12-20T13:57:27;88.78;;;38.63;;
55364;SDS011;41245;45.384;20.390;2023-12-20T13:59:56;71.27;;;37.17;;
55364;SDS011;41245;45.384;20.390;2023-12-20T14:02:23;75.93;;;36.83;;
55364;SDS011;41245;45.384;20.390;2023-12-20T14:04:49;71.57;;;36.13;;
55364;SDS011;41245;45.384;20.390;2023-12-20T14:07:15;74.10;;;37.65;;
55364;SDS011;41245;45.384;20.390;2023-12-20T14:09:41;86.25;;;41.20;;
55364;SDS011;41245;45.384;20.390;2023-12-20T14:12:10;101.33;;;44.10;;
55364;SDS011;41245;45.384;20.390;2023-12-20T14:14:36;89.53;;;42.90;;